Time;durP1;ratioP1;P1;durP2;ratioP2;P2;SDS_P1;SDS_P2;PMS_P1;PMS_P2;Temp;Humidity;BMP_temperature;BMP_pressure;BME280_temperature;BME280_humidity;BME280_pressure;Samples;Min_cycle;Max_cycle;Signal;HPM_P1;HPM_P2
2021/08/02 00:01:08;;;;;;;3.60;1.50;;;;;;;;;;5046836;28;20033;-83
2021/08/02 00:03:51;;;;;;;3.22;1.77;;;;;;;;;;5045190;28;20529;-82
2021/08/02 00:06:21;;;;;;;6.05;1.70;;;;;;;;;;5038291;28;20057;-82
2021/08/02 00:08:49;;;;;;;3.25;1.48;;;;;;;;;;5043633;28;20029;-83
2021/08/02 00:11:16;;;;;;;3.63;1.63;;;;;;;;;;5040359;28;20079;-82
2021/08/02 00:13:45;;;;;;;4.10;1.65;;;;;;;;;;5051690;22;20068;-80
2021/08/02 00:16:11;;;;;;;2.15;1.60;;;;;;;;;;5001628;28;20026;-80
2021/08/02 00:18:37;;;;;;;3.42;1.60;;;;;;;;;;5018396;28;20051;-80
2021/08/02 00:21:05;;;;;;;2.30;1.50;;;;;;;;;;5036050;28;20075;-81
2021/08/02 00:23:31;;;;;;;3.03;1.70;;;;;;;;;;5032463;28;20104;-80
2021/08/02 00:26:00;;;;;;;2.40;1.52;;;;;;;;;;5018158;28;20426;-80
2021/08/02 00:28:27;;;;;;;5.47;1.73;;;;;;;;;;5017665;28;20026;-80
2021/08/02 00:30:53;;;;;;;5.82;1.50;;;;;;;;;;5035675;28;20496;-79
2021/08/02 00:33:19;;;;;;;3.92;1.95;;;;;;;;;;5035395;28;20037;-80
2021/08/02 00:35:47;;;;;;;3.28;1.63;;;;;;;;;;5034910;28;20059;-81
2021/08/02 00:38:21;;;;;;;3.33;1.60;;;;;;;;;;5028155;28;20049;-80
2021/08/02 00:41:03;;;;;;;2.28;1.60;;;;;;;;;;5017245;28;20033;-81
2021/08/02 00:43:30;;;;;;;2.35;1.63;;;;;;;;;;4997914;28;20059;-81
2021/08/02 00:45:56;;;;;;;3.30;1.38;;;;;;;;;;5029770;28;20485;-81
2021/08/02 00:48:26;;;;;;;2.30;1.50;;;;;;;;;;5035305;28;20085;-80
2021/08/02 00:50:52;;;;;;;3.53;1.40;;;;;;;;;;5034701;28;20033;-80
2021/08/02 00:53:18;;;;;;;3.92;1.50;;;;;;;;;;5035486;28;20047;-81
2021/08/02 00:55:46;;;;;;;2.60;1.55;;;;;;;;;;5018459;28;20116;-81
2021/08/02 00:58:13;;;;;;;3.67;1.70;;;;;;;;;;5032145;28;20402;-81
2021/08/02 01:00:40;;;;;;;2.33;1.60;;;;;;;;;;4998064;28;20037;-81
2021/08/02 01:03:07;;;;;;;3.08;1.55;;;;;;;;;;5018575;28;20101;-81
2021/08/02 01:05:37;;;;;;;2.63;1.65;;;;;;;;;;5035792;28;20029;-80
2021/08/02 01:08:06;;;;;;;3.25;1.75;;;;;;;;;;5035728;28;20025;-82
2021/08/02 01:10:34;;;;;;;4.15;2.80;;;;;;;;;;5018382;28;20033;-82
2021/08/02 01:13:02;;;;;;;3.90;1.60;;;;;;;;;;5038280;28;20029;-82
2021/08/02 01:15:29;;;;;;;2.00;1.60;;;;;;;;;;5022076;28;20092;-82
2021/08/02 01:17:58;;;;;;;3.60;1.60;;;;;;;;;;5000223;28;20076;-82
2021/08/02 01:20:24;;;;;;;5.57;1.65;;;;;;;;;;5033189;28;20029;-82
2021/08/02 01:22:50;;;;;;;2.10;1.60;;;;;;;;;;5029890;28;20026;-82
2021/08/02 01:25:35;;;;;;;3.67;1.30;;;;;;;;;;5013745;28;20025;-81
2021/08/02 01:28:13;;;;;;;2.50;1.45;;;;;;;;;;5000703;28;20033;-82
2021/08/02 01:30:40;;;;;;;2.55;1.80;;;;;;;;;;5033307;28;20486;-82
2021/08/02 01:33:07;;;;;;;3.65;1.45;;;;;;;;;;5034348;28;20088;-82
2021/08/02 01:35:33;;;;;;;3.20;1.50;;;;;;;;;;5020620;28;20101;-83
2021/08/02 01:37:59;;;;;;;2.70;1.63;;;;;;;;;;5038694;28;20091;-82
2021/08/02 01:40:26;;;;;;;1.85;1.58;;;;;;;;;;5025234;28;20076;-82
2021/08/02 01:42:52;;;;;;;3.35;1.75;;;;;;;;;;5036569;28;20045;-83
2021/08/02 01:45:18;;;;;;;4.50;1.60;;;;;;;;;;5025384;28;20026;-82
2021/08/02 01:47:53;;;;;;;3.95;1.80;;;;;;;;;;5021850;28;20029;-83
2021/08/02 01:50:42;;;;;;;3.55;1.63;;;;;;;;;;5038025;28;20528;-82
2021/08/02 01:53:46;;;;;;;3.40;1.83;;;;;;;;;;5021159;28;20576;-82
2021/08/02 01:56:20;;;;;;;2.70;1.73;;;;;;;;;;4958496;29;20030;-81
2021/08/02 01:58:52;;;;;;;3.38;2.10;;;;;;;;;;4962355;29;20115;-82
2021/08/02 02:01:19;;;;;;;3.97;1.70;;;;;;;;;;5011116;28;20046;-83
2021/08/02 02:03:45;;;;;;;4.78;2.05;;;;;;;;;;5046028;28;20029;-82
2021/08/02 02:06:13;;;;;;;3.85;1.73;;;;;;;;;;5037709;28;20038;-81
2021/08/02 02:08:42;;;;;;;3.25;1.80;;;;;;;;;;5037574;28;20014;-83
2021/08/02 02:11:10;;;;;;;3.20;2.10;;;;;;;;;;5019853;28;20032;-82
2021/08/02 02:13:41;;;;;;;4.32;2.10;;;;;;;;;;5029673;28;20038;-81
2021/08/02 02:16:08;;;;;;;5.57;2.10;;;;;;;;;;4998270;28;20038;-81
2021/08/02 02:18:36;;;;;;;2.25;1.90;;;;;;;;;;4999099;28;20026;-82
2021/08/02 02:21:03;;;;;;;2.47;2.20;;;;;;;;;;5001158;28;20120;-82
2021/08/02 02:23:29;;;;;;;3.13;2.20;;;;;;;;;;5001773;28;20105;-81
2021/08/02 02:25:56;;;;;;;5.65;2.22;;;;;;;;;;5018585;28;20029;-81
2021/08/02 02:28:23;;;;;;;2.95;1.92;;;;;;;;;;5005257;28;20029;-82
2021/08/02 02:30:49;;;;;;;3.17;2.38;;;;;;;;;;5038203;28;20029;-81
2021/08/02 02:33:17;;;;;;;4.28;2.42;;;;;;;;;;5034289;28;20417;-82
2021/08/02 02:35:44;;;;;;;3.97;2.50;;;;;;;;;;5001417;28;20037;-82
2021/08/02 02:38:11;;;;;;;5.32;2.88;;;;;;;;;;5001517;28;20049;-81
2021/08/02 02:40:38;;;;;;;4.47;3.00;;;;;;;;;;5018727;28;20037;-82
2021/08/02 02:43:05;;;;;;;4.55;2.90;;;;;;;;;;5022698;28;20478;-82
2021/08/02 02:45:32;;;;;;;4.70;2.90;;;;;;;;;;5019045;28;20080;-82
2021/08/02 02:47:59;;;;;;;11.65;3.20;;;;;;;;;;5006793;28;20029;-81
2021/08/02 02:50:25;;;;;;;5.53;3.38;;;;;;;;;;5038561;28;20036;-82
2021/08/02 02:52:52;;;;;;;4.18;3.00;;;;;;;;;;5039324;28;20041;-82
2021/08/02 02:55:18;;;;;;;5.50;3.00;;;;;;;;;;5039223;28;20036;-82
2021/08/02 02:57:44;;;;;;;4.60;2.63;;;;;;;;;;5013322;28;20060;-82
2021/08/02 03:00:10;;;;;;;5.20;2.97;;;;;;;;;;5000987;28;20451;-82
2021/08/02 03:02:37;;;;;;;4.03;2.72;;;;;;;;;;5019994;28;20032;-82
2021/08/02 03:05:03;;;;;;;4.32;3.35;;;;;;;;;;5038627;28;20025;-81
2021/08/02 03:07:30;;;;;;;4.47;3.42;;;;;;;;;;5003706;28;20033;-82
2021/08/02 03:09:56;;;;;;;4.20;3.13;;;;;;;;;;5019538;28;20067;-81
2021/08/02 03:12:22;;;;;;;5.15;3.00;;;;;;;;;;5030068;28;20087;-81
2021/08/02 03:14:48;;;;;;;6.03;3.33;;;;;;;;;;5039205;28;20073;-82
2021/08/02 03:17:14;;;;;;;5.40;3.35;;;;;;;;;;5021402;28;20366;-82
2021/08/02 03:19:42;;;;;;;4.60;3.42;;;;;;;;;;5037868;28;20112;-82
2021/08/02 03:22:24;;;;;;;4.78;3.53;;;;;;;;;;5039075;28;20407;-82
2021/08/02 03:24:57;;;;;;;6.57;3.90;;;;;;;;;;5001907;28;20033;-82
2021/08/02 03:27:26;;;;;;;5.57;3.53;;;;;;;;;;5001274;28;20056;-82
2021/08/02 03:29:54;;;;;;;6.00;3.65;;;;;;;;;;5021974;28;20421;-82
2021/08/02 03:32:21;;;;;;;4.55;3.70;;;;;;;;;;5042478;28;20034;-81
2021/08/02 03:34:52;;;;;;;3.78;2.97;;;;;;;;;;5004560;28;20033;-81
2021/08/02 03:37:19;;;;;;;4.68;3.45;;;;;;;;;;5022933;28;20037;-81
2021/08/02 03:39:45;;;;;;;4.25;3.15;;;;;;;;;;5002005;28;20075;-82
2021/08/02 03:42:12;;;;;;;5.85;3.85;;;;;;;;;;5017685;28;20501;-82
2021/08/02 03:44:38;;;;;;;7.07;3.75;;;;;;;;;;5030164;28;20049;-82
2021/08/02 03:47:04;;;;;;;4.82;3.38;;;;;;;;;;4983557;28;20059;-82
2021/08/02 03:49:30;;;;;;;4.65;3.25;;;;;;;;;;4983149;28;20046;-81
2021/08/02 03:51:58;;;;;;;6.07;3.42;;;;;;;;;;5000482;28;20021;-81
2021/08/02 03:54:26;;;;;;;4.13;3.28;;;;;;;;;;5017455;28;20026;-81
2021/08/02 03:56:52;;;;;;;5.65;3.28;;;;;;;;;;5017898;28;20056;-81
2021/08/02 03:59:18;;;;;;;5.32;3.20;;;;;;;;;;5016850;28;20543;-81
2021/08/02 04:01:45;;;;;;;3.92;3.25;;;;;;;;;;5001348;28;20109;-82
2021/08/02 04:04:12;;;;;;;7.47;3.60;;;;;;;;;;5018608;28;20085;-82
2021/08/02 04:06:38;;;;;;;5.97;3.50;;;;;;;;;;5020283;28;20486;-82
2021/08/02 04:09:05;;;;;;;7.25;3.25;;;;;;;;;;5044402;28;20081;-82
2021/08/02 04:11:31;;;;;;;8.63;3.33;;;;;;;;;;5048888;28;20025;-81
2021/08/02 04:13:57;;;;;;;4.45;3.30;;;;;;;;;;5030226;28;20045;-81
2021/08/02 04:16:23;;;;;;;4.95;3.28;;;;;;;;;;5036282;28;20014;-82
2021/08/02 04:18:49;;;;;;;5.65;3.47;;;;;;;;;;5013994;28;20050;-81
2021/08/02 04:21:15;;;;;;;3.22;2.90;;;;;;;;;;5005355;28;20053;-81
2021/08/02 04:23:41;;;;;;;4.95;3.17;;;;;;;;;;5007495;28;20045;-81
2021/08/02 04:26:12;;;;;;;5.78;3.13;;;;;;;;;;4986498;28;20030;-81
2021/08/02 04:28:42;;;;;;;5.38;2.75;;;;;;;;;;5030285;28;20482;-81
2021/08/02 04:31:08;;;;;;;4.30;2.70;;;;;;;;;;4999071;28;20066;-81
2021/08/02 04:33:34;;;;;;;4.70;2.90;;;;;;;;;;5015815;28;20029;-81
2021/08/02 04:36:00;;;;;;;3.85;2.53;;;;;;;;;;5015434;28;20101;-82
2021/08/02 04:38:26;;;;;;;9.05;3.00;;;;;;;;;;5015969;28;20033;-81
2021/08/02 04:40:52;;;;;;;4.25;2.40;;;;;;;;;;4998034;28;20042;-82
2021/08/02 04:43:18;;;;;;;3.92;2.83;;;;;;;;;;5002427;28;20338;-82
2021/08/02 04:45:44;;;;;;;4.80;2.58;;;;;;;;;;5005937;28;20030;-81
2021/08/02 04:48:10;;;;;;;3.78;3.03;;;;;;;;;;5005040;28;20576;-83
2021/08/02 04:50:38;;;;;;;9.07;2.85;;;;;;;;;;5018522;28;20072;-81
2021/08/02 04:53:04;;;;;;;5.65;2.75;;;;;;;;;;5034511;28;20025;-81
2021/08/02 04:55:30;;;;;;;5.32;3.08;;;;;;;;;;5001112;28;20044;-81
2021/08/02 04:57:56;;;;;;;4.32;2.88;;;;;;;;;;5035150;28;20025;-82
2021/08/02 05:00:22;;;;;;;6.18;2.88;;;;;;;;;;5034272;28;20029;-81
2021/08/02 05:02:48;;;;;;;4.43;3.08;;;;;;;;;;5031575;28;20538;-81
2021/08/02 05:05:14;;;;;;;5.05;2.63;;;;;;;;;;4997458;28;20065;-82
2021/08/02 05:07:40;;;;;;;3.80;2.47;;;;;;;;;;4997165;28;20030;-81
2021/08/02 05:10:06;;;;;;;3.78;2.65;;;;;;;;;;5013915;28;20026;-81
2021/08/02 05:12:32;;;;;;;5.70;2.50;;;;;;;;;;5014287;28;20025;-81
2021/08/02 05:15:05;;;;;;;5.55;2.53;;;;;;;;;;5014319;28;20133;-81
2021/08/02 05:17:31;;;;;;;4.93;2.60;;;;;;;;;;5014203;28;20022;-81
2021/08/02 05:19:57;;;;;;;2.63;2.25;;;;;;;;;;5014459;28;20030;-81
2021/08/02 05:22:23;;;;;;;3.33;2.53;;;;;;;;;;4997567;28;20083;-81
2021/08/02 05:24:49;;;;;;;4.72;2.58;;;;;;;;;;4996985;28;20108;-81
2021/08/02 05:27:15;;;;;;;5.43;2.40;;;;;;;;;;5014154;28;20124;-81
2021/08/02 05:29:41;;;;;;;4.82;2.92;;;;;;;;;;5013667;28;20574;-81
2021/08/02 05:32:07;;;;;;;4.50;2.20;;;;;;;;;;4997048;28;20060;-81
2021/08/02 05:34:33;;;;;;;3.55;2.10;;;;;;;;;;5014177;28;20037;-81
2021/08/02 05:36:59;;;;;;;4.05;2.22;;;;;;;;;;5014517;28;20026;-81
2021/08/02 05:39:25;;;;;;;3.33;2.20;;;;;;;;;;4996475;28;20034;-81
2021/08/02 05:41:51;;;;;;;5.13;2.05;;;;;;;;;;5014408;28;20033;-82
2021/08/02 05:44:17;;;;;;;6.45;2.33;;;;;;;;;;5014695;28;20104;-82
2021/08/02 05:46:44;;;;;;;4.32;2.13;;;;;;;;;;4998313;28;20037;-82
2021/08/02 05:49:10;;;;;;;4.43;2.30;;;;;;;;;;5011970;28;20033;-81
2021/08/02 05:51:36;;;;;;;3.58;2.17;;;;;;;;;;4997093;28;20471;-82
2021/08/02 05:54:02;;;;;;;2.83;2.20;;;;;;;;;;4996461;28;20029;-81
2021/08/02 05:56:28;;;;;;;4.07;2.03;;;;;;;;;;5017206;28;20044;-80
2021/08/02 05:58:54;;;;;;;3.95;2.20;;;;;;;;;;5016334;28;20076;-81
2021/08/02 06:01:20;;;;;;;6.60;2.40;;;;;;;;;;5000362;28;20034;-80
2021/08/02 06:03:46;;;;;;;3.72;2.00;;;;;;;;;;5016453;28;20026;-82
2021/08/02 06:06:12;;;;;;;4.30;2.05;;;;;;;;;;5003137;28;20022;-81
2021/08/02 06:08:39;;;;;;;3.40;2.00;;;;;;;;;;4998655;28;20488;-80
2021/08/02 06:11:06;;;;;;;3.00;1.98;;;;;;;;;;5028253;28;20013;-80
2021/08/02 06:13:32;;;;;;;4.93;1.90;;;;;;;;;;5031074;28;20025;-81
2021/08/02 06:15:58;;;;;;;2.67;1.83;;;;;;;;;;5013989;28;20034;-81
2021/08/02 06:18:25;;;;;;;2.65;1.80;;;;;;;;;;5009898;28;20485;-81
2021/08/02 06:20:51;;;;;;;4.22;1.73;;;;;;;;;;5010004;28;20033;-81
2021/08/02 06:23:17;;;;;;;2.40;1.60;;;;;;;;;;5008625;28;20022;-81
2021/08/02 06:25:43;;;;;;;4.28;1.98;;;;;;;;;;5007760;28;20382;-80
2021/08/02 06:28:09;;;;;;;4.00;2.00;;;;;;;;;;4992235;28;20018;-80
2021/08/02 06:30:35;;;;;;;5.32;2.10;;;;;;;;;;4991969;28;20032;-81
2021/08/02 06:33:01;;;;;;;3.30;1.92;;;;;;;;;;5010715;28;20057;-83
2021/08/02 06:35:27;;;;;;;3.33;2.00;;;;;;;;;;5012374;28;20065;-84
2021/08/02 06:37:53;;;;;;;4.18;1.75;;;;;;;;;;5005853;28;20083;-81
2021/08/02 06:40:19;;;;;;;5.35;2.10;;;;;;;;;;4990833;28;20125;-82
2021/08/02 06:42:45;;;;;;;3.13;1.73;;;;;;;;;;4990417;28;20030;-82
2021/08/02 06:45:12;;;;;;;2.97;1.67;;;;;;;;;;5009660;28;20061;-83
2021/08/02 06:47:38;;;;;;;6.22;1.73;;;;;;;;;;5013327;28;20037;-82
2021/08/02 06:50:05;;;;;;;4.85;1.77;;;;;;;;;;5011526;28;20214;-82
2021/08/02 06:52:31;;;;;;;4.50;1.77;;;;;;;;;;5010674;28;20030;-83
2021/08/02 06:54:57;;;;;;;2.60;1.40;;;;;;;;;;5009795;28;20014;-80
2021/08/02 06:57:23;;;;;;;3.63;1.83;;;;;;;;;;4992166;28;20010;-82
2021/08/02 06:59:49;;;;;;;5.38;1.67;;;;;;;;;;4991666;28;20479;-83
2021/08/02 07:02:15;;;;;;;2.45;1.52;;;;;;;;;;5010601;28;20109;-82
2021/08/02 07:04:41;;;;;;;6.18;1.85;;;;;;;;;;4992069;28;20483;-83
2021/08/02 07:07:07;;;;;;;3.72;1.40;;;;;;;;;;5012621;28;20109;-83
2021/08/02 07:09:33;;;;;;;2.70;1.42;;;;;;;;;;4995100;28;20081;-83
2021/08/02 07:11:59;;;;;;;2.20;1.35;;;;;;;;;;5014227;28;20030;-82
2021/08/02 07:14:25;;;;;;;2.80;1.42;;;;;;;;;;5014304;28;20034;-82
2021/08/02 07:16:51;;;;;;;2.72;1.52;;;;;;;;;;4996649;28;20041;-82
2021/08/02 07:19:17;;;;;;;4.07;1.33;;;;;;;;;;5013611;28;20029;-83
2021/08/02 07:21:43;;;;;;;2.33;1.30;;;;;;;;;;4995869;28;20100;-82
2021/08/02 07:24:09;;;;;;;3.67;1.35;;;;;;;;;;5013426;28;20014;-82
2021/08/02 07:26:35;;;;;;;3.72;1.13;;;;;;;;;;5013300;28;20109;-83
2021/08/02 07:29:02;;;;;;;2.20;1.27;;;;;;;;;;5013576;28;20029;-82
2021/08/02 07:31:28;;;;;;;3.38;1.17;;;;;;;;;;5013285;28;20053;-83
2021/08/02 07:33:55;;;;;;;4.47;1.20;;;;;;;;;;4996318;28;20479;-82
2021/08/02 07:36:21;;;;;;;1.48;1.00;;;;;;;;;;5012746;28;20026;-82
2021/08/02 07:38:47;;;;;;;2.88;1.40;;;;;;;;;;5013145;28;20105;-82
2021/08/02 07:41:14;;;;;;;3.45;1.48;;;;;;;;;;4996660;28;20563;-81
2021/08/02 07:43:40;;;;;;;5.63;1.10;;;;;;;;;;5013260;28;20026;-82
2021/08/02 07:46:06;;;;;;;3.75;0.95;;;;;;;;;;4996480;28;20587;-83
2021/08/02 07:48:32;;;;;;;5.43;1.58;;;;;;;;;;4975633;28;20045;-81
2021/08/02 07:50:58;;;;;;;4.93;2.75;;;;;;;;;;4993977;28;20038;-83
2021/08/02 07:53:24;;;;;;;3.05;1.10;;;;;;;;;;4996066;28;20031;-81
2021/08/02 07:55:50;;;;;;;2.42;1.40;;;;;;;;;;4993649;28;20490;-83
2021/08/02 07:58:16;;;;;;;3.30;1.33;;;;;;;;;;4993978;28;20027;-82
2021/08/02 08:00:43;;;;;;;2.72;1.20;;;;;;;;;;4994138;28;20050;-81
2021/08/02 08:03:09;;;;;;;2.10;1.00;;;;;;;;;;5010847;28;20040;-81
2021/08/02 08:05:35;;;;;;;3.75;1.17;;;;;;;;;;4993554;28;20113;-81
2021/08/02 08:08:01;;;;;;;3.55;1.20;;;;;;;;;;5011520;28;20022;-81
2021/08/02 08:10:27;;;;;;;3.72;1.27;;;;;;;;;;4992836;28;20029;-82
2021/08/02 08:12:54;;;;;;;3.35;1.20;;;;;;;;;;5009015;28;20026;-82
2021/08/02 08:15:21;;;;;;;3.72;1.58;;;;;;;;;;5013428;28;20037;-81
2021/08/02 08:17:47;;;;;;;2.22;1.23;;;;;;;;;;5013729;28;20037;-82
2021/08/02 08:20:14;;;;;;;3.25;1.20;;;;;;;;;;4995551;28;20053;-81
2021/08/02 08:22:40;;;;;;;4.78;1.35;;;;;;;;;;4995094;28;20057;-82
2021/08/02 08:25:07;;;;;;;2.45;1.42;;;;;;;;;;4997010;28;20490;-84
2021/08/02 08:27:33;;;;;;;2.03;1.13;;;;;;;;;;5014303;28;20288;-83
2021/08/02 08:29:59;;;;;;;3.15;1.23;;;;;;;;;;5016588;28;20022;-83
2021/08/02 08:32:25;;;;;;;1.67;1.17;;;;;;;;;;5018177;28;20025;-83
2021/08/02 08:34:51;;;;;;;3.55;1.40;;;;;;;;;;5016647;28;20036;-81
2021/08/02 08:37:18;;;;;;;5.07;1.30;;;;;;;;;;5022540;28;20541;-82
2021/08/02 08:39:44;;;;;;;4.15;1.02;;;;;;;;;;5016505;28;20044;-83
2021/08/02 08:42:10;;;;;;;3.13;1.13;;;;;;;;;;5032275;28;20018;-82
2021/08/02 08:44:36;;;;;;;2.60;1.38;;;;;;;;;;5019489;28;20025;-81
2021/08/02 08:47:02;;;;;;;2.15;1.33;;;;;;;;;;5033846;28;20146;-80
2021/08/02 08:49:28;;;;;;;2.75;1.40;;;;;;;;;;5030540;28;20038;-79
2021/08/02 08:51:54;;;;;;;5.82;1.60;;;;;;;;;;5032380;28;20029;-82
2021/08/02 08:54:20;;;;;;;3.88;1.50;;;;;;;;;;5030739;28;20045;-81
2021/08/02 08:56:47;;;;;;;3.67;1.30;;;;;;;;;;5015578;28;20026;-81
2021/08/02 08:59:13;;;;;;;6.15;1.80;;;;;;;;;;5010730;28;20034;-81
2021/08/02 09:01:40;;;;;;;2.33;1.40;;;;;;;;;;5010512;28;20533;-81
2021/08/02 09:04:07;;;;;;;3.47;1.50;;;;;;;;;;4975720;28;20022;-82
2021/08/02 09:06:44;;;;;;;2.63;1.17;;;;;;;;;;5026247;28;20030;-81
2021/08/02 09:09:10;;;;;;;3.95;1.33;;;;;;;;;;5024959;28;20161;-81
2021/08/02 09:11:36;;;;;;;4.10;1.50;;;;;;;;;;5013747;28;20158;-82
2021/08/02 09:14:13;;;;;;;2.67;1.35;;;;;;;;;;5014173;28;20113;-81
2021/08/02 09:16:39;;;;;;;2.60;1.23;;;;;;;;;;4994247;28;20018;-80
2021/08/02 09:19:07;;;;;;;3.00;1.55;;;;;;;;;;4995072;28;20036;-83
2021/08/02 09:21:43;;;;;;;2.63;1.33;;;;;;;;;;5014974;28;20025;-83
2021/08/02 09:24:09;;;;;;;2.40;1.10;;;;;;;;;;5012996;28;20034;-82
2021/08/02 09:26:36;;;;;;;2.95;1.48;;;;;;;;;;4995871;28;20025;-84
2021/08/02 09:29:03;;;;;;;3.85;1.40;;;;;;;;;;4994706;28;20030;-82
2021/08/02 09:31:33;;;;;;;2.67;1.30;;;;;;;;;;5013970;28;20699;-82
2021/08/02 09:34:09;;;;;;;3.42;1.17;;;;;;;;;;5027077;28;20036;-81
2021/08/02 09:36:42;;;;;;;2.38;1.13;;;;;;;;;;5038738;28;20521;-77
2021/08/02 09:39:13;;;;;;;2.55;1.23;;;;;;;;;;4996518;28;20206;-81
2021/08/02 09:41:40;;;;;;;2.97;1.27;;;;;;;;;;5013186;28;20022;-76
2021/08/02 09:44:06;;;;;;;1.90;1.20;;;;;;;;;;5022741;28;20032;-82
2021/08/02 09:46:33;;;;;;;3.20;1.25;;;;;;;;;;4997539;28;20036;-80
2021/08/02 09:49:04;;;;;;;4.07;1.10;;;;;;;;;;4995985;28;20049;-79
2021/08/02 09:51:41;;;;;;;1.73;1.13;;;;;;;;;;5009356;28;20041;-78
2021/08/02 09:54:07;;;;;;;3.90;1.13;;;;;;;;;;5012718;28;20080;-79
2021/08/02 09:56:33;;;;;;;3.20;1.35;;;;;;;;;;5014529;28;20398;-80
2021/08/02 09:58:59;;;;;;;2.53;1.40;;;;;;;;;;5012845;28;20069;-81
2021/08/02 10:01:25;;;;;;;3.33;0.90;;;;;;;;;;5024657;28;20026;-78
2021/08/02 10:03:52;;;;;;;1.80;1.17;;;;;;;;;;5036103;28;20125;-79
2021/08/02 10:06:18;;;;;;;5.03;1.50;;;;;;;;;;5034901;28;20033;-78
2021/08/02 10:08:44;;;;;;;3.50;1.02;;;;;;;;;;5034684;28;20029;-80
2021/08/02 10:11:10;;;;;;;5.53;1.42;;;;;;;;;;5035226;28;20085;-80
2021/08/02 10:13:37;;;;;;;3.10;1.40;;;;;;;;;;5036082;28;20037;-80
2021/08/02 10:16:08;;;;;;;1.92;1.30;;;;;;;;;;5020563;28;20030;-78
2021/08/02 10:18:34;;;;;;;3.50;1.30;;;;;;;;;;4994125;28;20026;-79
2021/08/02 10:21:05;;;;;;;2.72;1.15;;;;;;;;;;4997207;28;20113;-83
2021/08/02 10:23:31;;;;;;;4.22;1.45;;;;;;;;;;5036098;28;20042;-82
2021/08/02 10:25:57;;;;;;;2.63;1.33;;;;;;;;;;5024576;28;20030;-80
2021/08/02 10:28:23;;;;;;;4.45;1.42;;;;;;;;;;5037409;28;20112;-80
2021/08/02 10:31:00;;;;;;;3.83;1.33;;;;;;;;;;5015621;28;20053;-80
2021/08/02 10:33:39;;;;;;;2.78;1.40;;;;;;;;;;5016283;28;20639;-77
2021/08/02 10:36:12;;;;;;;2.22;1.13;;;;;;;;;;5015068;28;20030;-82
2021/08/02 10:38:46;;;;;;;3.83;1.58;;;;;;;;;;4996735;28;20421;-78
2021/08/02 10:41:23;;;;;;;3.63;1.35;;;;;;;;;;5019095;28;20092;-82
2021/08/02 10:43:49;;;;;;;2.13;0.93;;;;;;;;;;5021677;28;20093;-82
2021/08/02 10:46:33;;;;;;;2.17;0.90;;;;;;;;;;5003106;28;20527;-81
2021/08/02 10:49:12;;;;;;;5.05;1.02;;;;;;;;;;5001917;28;20182;-83
2021/08/02 10:51:48;;;;;;;4.57;1.30;;;;;;;;;;5003636;28;20023;-81
2021/08/02 10:54:15;;;;;;;3.08;1.00;;;;;;;;;;5004395;28;20033;-82
2021/08/02 10:56:41;;;;;;;5.45;1.00;;;;;;;;;;4988956;28;20026;-82
2021/08/02 10:59:07;;;;;;;2.75;1.20;;;;;;;;;;5003589;28;20517;-79
2021/08/02 11:01:36;;;;;;;2.10;1.20;;;;;;;;;;5021004;28;20022;-81
2021/08/02 11:04:12;;;;;;;2.70;1.05;;;;;;;;;;5023889;28;20026;-82
2021/08/02 11:06:38;;;;;;;2.63;1.15;;;;;;;;;;5007009;28;20061;-82
2021/08/02 11:09:05;;;;;;;4.10;1.10;;;;;;;;;;5024555;28;20038;-81
2021/08/02 11:11:34;;;;;;;4.93;1.20;;;;;;;;;;5022706;28;20034;-81
2021/08/02 11:14:05;;;;;;;5.53;1.20;;;;;;;;;;5023149;28;20025;-81
2021/08/02 11:16:41;;;;;;;1.65;1.00;;;;;;;;;;5025000;28;20034;-80
2021/08/02 11:19:14;;;;;;;3.20;1.00;;;;;;;;;;5021593;28;20060;-81
2021/08/02 11:21:40;;;;;;;3.78;1.27;;;;;;;;;;5004648;28;20077;-81
2021/08/02 11:24:09;;;;;;;3.40;1.02;;;;;;;;;;5022603;28;20033;-82
2021/08/02 11:26:45;;;;;;;2.03;0.85;;;;;;;;;;5022302;28;20068;-82
2021/08/02 11:29:17;;;;;;;2.25;1.00;;;;;;;;;;5022802;28;20041;-82
2021/08/02 11:31:52;;;;;;;2.28;1.00;;;;;;;;;;5018969;28;20048;-81
2021/08/02 11:34:19;;;;;;;3.28;0.93;;;;;;;;;;5018956;28;20540;-80
2021/08/02 11:36:45;;;;;;;2.33;0.88;;;;;;;;;;5019921;28;20379;-81
2021/08/02 11:39:19;;;;;;;2.97;0.90;;;;;;;;;;5020278;28;20040;-80
2021/08/02 11:41:46;;;;;;;1.08;0.70;;;;;;;;;;5039729;28;20022;-80
2021/08/02 11:44:12;;;;;;;1.80;1.15;;;;;;;;;;5038095;28;20332;-81
2021/08/02 11:46:38;;;;;;;4.25;1.20;;;;;;;;;;4987418;28;20038;-84
2021/08/02 11:49:04;;;;;;;2.80;1.08;;;;;;;;;;5018679;28;20030;-79
2021/08/02 11:51:30;;;;;;;1.40;0.90;;;;;;;;;;5017193;28;20038;-80
2021/08/02 11:53:58;;;;;;;3.50;1.10;;;;;;;;;;5002243;28;20030;-81
2021/08/02 11:56:31;;;;;;;1.33;0.75;;;;;;;;;;5001918;28;20538;-82
2021/08/02 11:58:57;;;;;;;3.80;1.17;;;;;;;;;;4999726;28;20050;-80
2021/08/02 12:01:23;;;;;;;2.20;1.00;;;;;;;;;;5016245;28;20543;-80
2021/08/02 12:03:54;;;;;;;4.03;0.77;;;;;;;;;;5027025;28;20020;-80
2021/08/02 12:06:20;;;;;;;1.40;0.70;;;;;;;;;;5038616;28;20030;-80
2021/08/02 12:08:50;;;;;;;1.17;0.50;;;;;;;;;;5036510;28;20110;-80
2021/08/02 12:11:17;;;;;;;1.23;0.50;;;;;;;;;;5037345;28;20081;-80
2021/08/02 12:13:46;;;;;;;2.17;0.50;;;;;;;;;;5026741;28;20030;-80
2021/08/02 12:16:24;;;;;;;2.80;0.60;;;;;;;;;;5029807;28;20391;-80
2021/08/02 12:18:50;;;;;;;2.22;0.65;;;;;;;;;;5000817;28;20018;-80
2021/08/02 12:21:22;;;;;;;1.63;0.60;;;;;;;;;;5028328;28;20129;-79
2021/08/02 12:23:48;;;;;;;1.92;0.95;;;;;;;;;;5000374;28;20022;-80
2021/08/02 12:26:21;;;;;;;0.93;0.50;;;;;;;;;;5022056;28;20022;-79
2021/08/02 12:28:47;;;;;;;1.45;0.40;;;;;;;;;;5015650;28;20021;-80
2021/08/02 12:31:15;;;;;;;1.50;0.63;;;;;;;;;;5038493;28;20026;-80
2021/08/02 12:33:41;;;;;;;1.15;0.40;;;;;;;;;;4997606;28;20034;-79
2021/08/02 12:36:07;;;;;;;1.00;0.50;;;;;;;;;;5031256;28;20033;-79
2021/08/02 12:38:33;;;;;;;2.83;0.60;;;;;;;;;;5037863;28;20034;-80
2021/08/02 12:41:00;;;;;;;3.40;0.68;;;;;;;;;;5039772;28;20532;-79
2021/08/02 12:43:26;;;;;;;2.40;0.77;;;;;;;;;;5025231;28;20465;-79
2021/08/02 12:45:52;;;;;;;4.47;0.70;;;;;;;;;;5027157;28;20033;-79
2021/08/02 12:48:18;;;;;;;2.20;0.70;;;;;;;;;;5024777;28;20033;-80
2021/08/02 12:50:44;;;;;;;2.88;0.80;;;;;;;;;;5012300;28;20076;-80
2021/08/02 12:53:10;;;;;;;1.90;0.70;;;;;;;;;;5011740;28;20034;-79
2021/08/02 12:55:36;;;;;;;2.00;0.70;;;;;;;;;;5027813;28;20036;-79
2021/08/02 12:58:02;;;;;;;1.33;0.50;;;;;;;;;;5010059;28;20030;-79
2021/08/02 13:00:28;;;;;;;3.33;0.75;;;;;;;;;;5004562;28;20083;-80
2021/08/02 13:02:55;;;;;;;3.88;0.90;;;;;;;;;;5004382;28;20026;-78
2021/08/02 13:05:21;;;;;;;3.42;0.73;;;;;;;;;;5019952;28;20037;-79
2021/08/02 13:07:47;;;;;;;1.92;0.63;;;;;;;;;;5025056;28;20036;-79
2021/08/02 13:10:13;;;;;;;3.38;0.80;;;;;;;;;;5021397;28;20563;-79
2021/08/02 13:12:39;;;;;;;1.58;0.73;;;;;;;;;;5046630;28;20111;-79
2021/08/02 13:15:05;;;;;;;1.70;0.70;;;;;;;;;;5033101;28;20398;-81
2021/08/02 13:17:32;;;;;;;1.00;0.80;;;;;;;;;;5016593;28;20030;-80
2021/08/02 13:19:58;;;;;;;2.28;0.80;;;;;;;;;;5015737;28;20030;-79
2021/08/02 13:22:32;;;;;;;1.45;0.70;;;;;;;;;;5001351;28;20025;-78
2021/08/02 13:27:46;;;;;;;3.00;0.85;;;;;;;;;;5021612;28;20044;-79
2021/08/02 13:30:12;;;;;;;5.45;0.82;;;;;;;;;;5021655;28;20025;-80
2021/08/02 13:32:39;;;;;;;1.33;0.85;;;;;;;;;;5020428;28;20049;-79
2021/08/02 13:35:05;;;;;;;1.25;0.70;;;;;;;;;;5004317;28;20052;-78
2021/08/02 13:37:31;;;;;;;1.88;0.77;;;;;;;;;;5021618;28;20085;-80
2021/08/02 13:39:57;;;;;;;2.25;1.00;;;;;;;;;;5020155;28;20085;-79
2021/08/02 13:42:23;;;;;;;2.78;1.08;;;;;;;;;;5020164;28;20022;-79
2021/08/02 13:44:49;;;;;;;3.92;1.10;;;;;;;;;;5019510;28;20081;-78
2021/08/02 13:47:15;;;;;;;3.78;0.95;;;;;;;;;;5005663;28;20026;-79
2021/08/02 13:49:41;;;;;;;2.65;1.00;;;;;;;;;;5023506;28;20032;-79
2021/08/02 13:52:07;;;;;;;2.03;0.80;;;;;;;;;;5022291;28;20125;-77
2021/08/02 13:54:33;;;;;;;2.42;0.90;;;;;;;;;;4996902;28;20121;-77
2021/08/02 13:57:00;;;;;;;2.08;1.15;;;;;;;;;;5020304;28;20041;-79
2021/08/02 13:59:25;;;;;;;2.60;0.80;;;;;;;;;;5033788;28;20036;-79
2021/08/02 14:01:52;;;;;;;2.10;0.90;;;;;;;;;;5034729;28;20386;-79
2021/08/02 14:04:18;;;;;;;3.20;1.20;;;;;;;;;;5018416;28;20109;-77
2021/08/02 14:06:44;;;;;;;4.03;0.80;;;;;;;;;;5014217;28;20088;-78
2021/08/02 14:09:10;;;;;;;1.58;0.70;;;;;;;;;;5018907;28;20030;-78
2021/08/02 14:11:36;;;;;;;0.82;0.63;;;;;;;;;;5018918;28;20482;-77
2021/08/02 14:14:02;;;;;;;3.63;0.63;;;;;;;;;;5020347;28;20034;-78
2021/08/02 14:16:33;;;;;;;0.98;0.60;;;;;;;;;;5025351;28;20060;-78
2021/08/02 14:18:59;;;;;;;0.98;0.43;;;;;;;;;;5023005;28;20034;-79
2021/08/02 14:21:26;;;;;;;1.90;0.40;;;;;;;;;;5025215;28;20032;-78
2021/08/02 14:23:53;;;;;;;1.70;0.50;;;;;;;;;;5009495;28;20556;-78
2021/08/02 14:26:20;;;;;;;1.20;0.50;;;;;;;;;;5028395;28;20054;-78
2021/08/02 14:28:46;;;;;;;0.95;0.50;;;;;;;;;;5025255;28;20078;-78
2021/08/02 14:31:12;;;;;;;2.10;0.98;;;;;;;;;;5026692;28;20037;-77
2021/08/02 14:33:41;;;;;;;0.77;0.50;;;;;;;;;;5020382;28;20032;-78
2021/08/02 14:36:07;;;;;;;0.85;0.47;;;;;;;;;;5042571;28;20033;-78
2021/08/02 14:38:34;;;;;;;0.98;0.45;;;;;;;;;;5021989;28;20026;-78
2021/08/02 14:41:01;;;;;;;4.05;0.68;;;;;;;;;;5016732;28;20518;-79
2021/08/02 14:43:29;;;;;;;3.30;0.70;;;19.00;99.90;;;;;;5016756;28;20076;-79
2021/08/02 14:45:55;;;;;;;1.83;0.60;;;30.40;68.30;;;;;;5017371;28;20041;-78